FABL

Bram Fischer International Airport

Bloemfontain, South Africa
METAR FABL 190000Z AUTO 03016KT 9999 ///////// 20/10 Q1019
Observed Flight Rules
Nov-19 @ 00:00 UTC (59 minutes ago)
Wind Visibility
30° at 16 knots 10,000+ meters
Temperatures Readings
Current 20°C / 68°F
Dewpoint 10°C / 50°F
Humidity 53%
Altimeter 30.09" Hg
Pressure 1019 hPa
Elevation 1348
METAR FABL 190000Z AUTO 03016KT 9999 ///////// 20/10 Q1019
Observed Flight Rules
Nov-19 @ 00:00 UTC
(59 minutes ago)
Wind Visibility
30° at 16 knots 10,000+ meters
Temperature Dewpoint
20°C / 68°F 10°C / 50°F
Humidity Altimeter Pressure
53% 30.09" Hg 1019 hPa